createdAt,value
2017-10-03T00:00:57.448Z,14.37
2017-10-03T00:03:26.652Z,14.35
2017-10-03T00:05:55.894Z,14.34
2017-10-03T00:08:25.155Z,14.37
2017-10-03T00:10:54.388Z,14.38
2017-10-03T00:13:23.691Z,14.44
2017-10-03T00:15:52.895Z,14.37
2017-10-03T00:18:22.119Z,14.40
2017-10-03T00:20:52.075Z,14.37
2017-10-03T00:23:21.322Z,14.39
2017-10-03T00:25:51.295Z,14.40
2017-10-03T00:28:20.506Z,14.39
2017-10-03T00:30:49.728Z,14.38
2017-10-03T00:33:18.936Z,14.31
2017-10-03T00:35:48.917Z,14.35
2017-10-03T00:38:18.115Z,14.33
2017-10-03T00:40:47.361Z,14.37
2017-10-03T00:43:17.419Z,14.33
2017-10-03T00:45:47.418Z,14.33
2017-10-03T00:48:16.610Z,14.31
2017-10-03T00:50:45.896Z,14.34
2017-10-03T00:53:15.100Z,14.33
2017-10-03T00:55:44.297Z,14.30
2017-10-03T00:58:13.570Z,14.28
2017-10-03T01:00:43.534Z,14.31
2017-10-03T01:03:13.528Z,14.30
2017-10-03T01:05:42.739Z,14.29
2017-10-03T01:08:11.966Z,14.31
2017-10-03T01:10:41.251Z,14.32
2017-10-03T01:13:10.455Z,14.26
2017-10-03T01:15:39.666Z,14.29
2017-10-03T01:18:08.894Z,14.28
2017-10-03T01:20:38.907Z,14.30
2017-10-03T01:23:08.880Z,14.29
2017-10-03T01:25:38.107Z,14.19
2017-10-03T01:28:07.306Z,14.14
2017-10-03T01:30:37.302Z,14.15
2017-10-03T01:33:06.514Z,14.17
2017-10-03T01:35:35.742Z,14.15
2017-10-03T01:38:07.001Z,14.06
2017-10-03T01:40:36.943Z,14.02
2017-10-03T01:43:06.158Z,13.93
2017-10-03T01:45:35.607Z,13.96
2017-10-03T01:48:04.827Z,13.92
2017-10-03T01:50:34.034Z,13.86
2017-10-03T01:53:03.249Z,13.83
2017-10-03T01:55:32.464Z,13.82
2017-10-03T01:58:01.691Z,13.80
2017-10-03T02:00:30.917Z,13.84
2017-10-03T02:03:00.182Z,13.81
2017-10-03T02:05:29.380Z,13.84
2017-10-03T02:07:58.622Z,13.91
2017-10-03T02:10:27.840Z,13.87
2017-10-03T02:12:57.045Z,13.81
2017-10-03T02:15:26.248Z,13.82
2017-10-03T02:17:56.223Z,13.87
2017-10-03T02:20:25.450Z,13.81
2017-10-03T02:22:54.679Z,13.83
2017-10-03T02:25:24.643Z,13.88
2017-10-03T02:27:53.863Z,13.79
2017-10-03T02:30:23.864Z,13.79
2017-10-03T02:32:53.103Z,13.80
2017-10-03T02:35:22.314Z,13.78
2017-10-03T02:37:51.543Z,13.75
2017-10-03T02:40:20.735Z,13.75
2017-10-03T02:42:50.707Z,13.76
2017-10-03T02:45:20.670Z,13.80
2017-10-03T02:47:49.907Z,13.81
2017-10-03T02:50:19.925Z,13.83
2017-10-03T02:52:49.958Z,13.67
2017-10-03T02:55:19.200Z,13.68
2017-10-03T02:57:48.396Z,13.70
2017-10-03T03:00:18.415Z,13.77
2017-10-03T03:02:48.367Z,13.77
2017-10-03T03:05:18.363Z,13.70
2017-10-03T03:07:47.594Z,13.70
2017-10-03T03:10:17.578Z,13.61
2017-10-03T03:12:46.791Z,13.59
2017-10-03T03:15:16.765Z,13.54
2017-10-03T03:17:46.038Z,13.59
2017-10-03T03:20:15.303Z,13.58
2017-10-03T03:22:44.494Z,13.51
2017-10-03T03:25:13.763Z,13.52
2017-10-03T03:27:42.959Z,13.52
2017-10-03T03:30:12.151Z,13.52
2017-10-03T03:32:41.453Z,13.47
2017-10-03T03:35:10.642Z,13.49
2017-10-03T03:37:39.887Z,13.51
2017-10-03T03:40:09.099Z,13.51
2017-10-03T03:42:39.110Z,13.48
2017-10-03T03:45:09.103Z,13.47
2017-10-03T03:47:38.322Z,13.42
2017-10-03T03:50:08.303Z,13.41
2017-10-03T03:52:37.512Z,13.42
2017-10-03T03:55:06.739Z,13.40
2017-10-03T03:57:36.711Z,13.37
2017-10-03T04:00:05.939Z,13.35
2017-10-03T04:02:35.946Z,13.29
2017-10-03T04:05:05.193Z,13.25
2017-10-03T04:07:34.398Z,13.23
2017-10-03T04:10:03.620Z,13.24
2017-10-03T04:12:32.835Z,13.24
2017-10-03T04:15:02.087Z,13.18
2017-10-03T04:17:31.304Z,13.21
2017-10-03T04:20:00.506Z,13.19
2017-10-03T04:22:30.503Z,13.17
2017-10-03T04:25:00.471Z,13.13
2017-10-03T04:27:30.459Z,13.12
2017-10-03T04:29:59.670Z,13.11
2017-10-03T04:32:28.886Z,13.06
2017-10-03T04:34:58.862Z,12.99
2017-10-03T04:37:28.070Z,13.08
2017-10-03T04:39:57.315Z,13.04
2017-10-03T04:42:26.519Z,13.04
2017-10-03T04:44:56.487Z,13.11
2017-10-03T04:47:25.740Z,13.13
2017-10-03T04:49:54.951Z,13.17
2017-10-03T04:52:24.189Z,13.16
2017-10-03T04:54:53.451Z,13.26
2017-10-03T04:57:22.684Z,13.25
2017-10-03T04:59:51.911Z,13.22
2017-10-03T05:02:21.115Z,13.22
2017-10-03T05:04:50.339Z,13.25
2017-10-03T05:07:19.555Z,13.24
2017-10-03T05:09:48.798Z,13.24
2017-10-03T05:12:18.766Z,13.20
2017-10-03T05:14:47.989Z,13.20
2017-10-03T05:17:17.979Z,13.09
2017-10-03T05:19:47.955Z,13.13
2017-10-03T05:22:17.169Z,13.15
2017-10-03T05:24:46.399Z,13.16
2017-10-03T05:27:15.635Z,13.18
2017-10-03T05:29:44.844Z,13.21
2017-10-03T05:32:14.064Z,13.24
2017-10-03T05:34:43.283Z,13.26
2017-10-03T05:37:12.524Z,13.24
2017-10-03T05:39:42.508Z,13.24
2017-10-03T05:42:11.740Z,13.22
2017-10-03T05:44:41.753Z,13.26
2017-10-03T05:47:11.729Z,13.23
2017-10-03T05:49:40.947Z,13.22
2017-10-03T05:52:10.930Z,13.23
2017-10-03T05:54:40.147Z,13.23
2017-10-03T05:57:09.391Z,13.17
2017-10-03T05:59:38.631Z,13.15
2017-10-03T06:02:07.859Z,13.19
2017-10-03T06:04:37.865Z,13.18
2017-10-03T06:07:07.115Z,13.21
2017-10-03T06:09:36.342Z,13.18
2017-10-03T06:12:05.560Z,13.22
2017-10-03T06:14:34.767Z,13.22
2017-10-03T06:17:03.984Z,13.24
2017-10-03T06:19:33.251Z,13.28
2017-10-03T06:22:02.489Z,13.28
2017-10-03T06:24:31.697Z,13.28
2017-10-03T06:27:00.935Z,13.29
2017-10-03T06:29:30.151Z,13.32
2017-10-03T06:32:00.154Z,13.30
2017-10-03T06:34:29.371Z,13.29
2017-10-03T06:36:58.610Z,13.27
2017-10-03T06:39:27.826Z,13.29
2017-10-03T06:41:57.059Z,13.29
2017-10-03T06:44:27.069Z,13.34
2017-10-03T06:46:56.287Z,13.32
2017-10-03T06:49:26.267Z,13.33
2017-10-03T06:51:55.504Z,13.38
2017-10-03T06:54:24.720Z,13.42
2017-10-03T06:56:53.930Z,13.45
2017-10-03T06:59:23.159Z,13.52
2017-10-03T07:01:52.383Z,13.57
2017-10-03T07:04:22.397Z,13.61
2017-10-03T07:06:51.607Z,13.60
2017-10-03T07:09:21.602Z,13.66
2017-10-03T07:11:51.586Z,13.66
2017-10-03T07:14:20.823Z,13.68
2017-10-03T07:16:50.800Z,13.72
2017-10-03T07:19:20.028Z,13.69
2017-10-03T07:21:49.263Z,13.73
2017-10-03T07:24:18.487Z,13.77
2017-10-03T07:26:47.695Z,13.78
2017-10-03T07:29:16.927Z,13.84
2017-10-03T07:31:47.142Z,13.87
2017-10-03T07:34:16.346Z,13.94
2017-10-03T07:36:46.331Z,13.96
2017-10-03T07:39:15.572Z,13.95
2017-10-03T07:41:45.542Z,13.95
2017-10-03T07:44:14.783Z,13.92
2017-10-03T07:46:44.041Z,13.97
2017-10-03T07:49:13.303Z,14.01
2017-10-03T07:51:42.514Z,14.03
2017-10-03T07:54:11.762Z,14.06
2017-10-03T07:56:41.733Z,14.09
2017-10-03T07:59:10.951Z,14.13
2017-10-03T08:01:40.183Z,14.21
2017-10-03T08:04:10.193Z,14.23
2017-10-03T08:06:39.423Z,14.26
2017-10-03T08:09:08.666Z,14.33
2017-10-03T08:11:37.891Z,14.26
2017-10-03T08:14:07.870Z,14.19
2017-10-03T08:16:37.111Z,14.15
2017-10-03T08:19:07.106Z,14.10
2017-10-03T08:21:36.344Z,14.12
2017-10-03T08:24:05.576Z,14.07
2017-10-03T08:26:34.803Z,14.12
2017-10-03T08:29:04.018Z,14.29
2017-10-03T08:31:33.988Z,14.36
2017-10-03T08:34:03.249Z,14.55
2017-10-03T08:36:32.475Z,14.61
2017-10-03T08:39:01.666Z,14.71
2017-10-03T08:41:30.898Z,14.77
2017-10-03T08:44:00.123Z,14.71
2017-10-03T08:46:29.359Z,14.74
2017-10-03T08:48:58.582Z,14.76
2017-10-03T08:51:27.805Z,14.68
2017-10-03T08:53:57.799Z,14.68
2017-10-03T08:56:27.084Z,14.74
2017-10-03T08:58:56.296Z,14.75
2017-10-03T09:01:25.668Z,14.73
2017-10-03T09:03:55.801Z,14.76
2017-10-03T09:06:25.013Z,14.77
2017-10-03T09:08:54.258Z,14.83
2017-10-03T09:11:23.474Z,14.81
2017-10-03T09:13:52.687Z,14.77
2017-10-03T09:16:22.662Z,14.75
2017-10-03T09:18:51.898Z,14.76
2017-10-03T09:21:21.110Z,14.79
2017-10-03T09:23:50.354Z,14.84
2017-10-03T09:26:19.615Z,14.85
2017-10-03T09:28:48.803Z,14.85
2017-10-03T09:31:18.099Z,14.88
2017-10-03T09:33:47.327Z,14.86
2017-10-03T09:36:16.555Z,14.87
2017-10-03T09:38:45.776Z,14.90
2017-10-03T09:41:15.060Z,15.04
2017-10-03T09:43:44.281Z,15.14
2017-10-03T09:46:13.540Z,15.30
2017-10-03T09:48:43.496Z,15.46
2017-10-03T09:51:12.719Z,15.59
2017-10-03T09:53:41.952Z,15.74
2017-10-03T09:56:11.195Z,15.84
2017-10-03T09:58:40.447Z,15.85
2017-10-03T10:01:09.720Z,15.84
2017-10-03T10:03:38.911Z,15.78
2017-10-03T10:06:08.143Z,15.60
2017-10-03T10:08:37.429Z,15.48
2017-10-03T10:11:07.404Z,15.54
2017-10-03T10:13:36.624Z,15.55
2017-10-03T10:16:06.635Z,15.67
2017-10-03T10:18:37.009Z,15.78
2017-10-03T10:21:06.203Z,15.75
2017-10-03T10:23:35.429Z,15.73
2017-10-03T10:26:04.653Z,15.79
2017-10-03T10:28:33.894Z,15.74
2017-10-03T10:31:03.117Z,15.70
2017-10-03T10:33:32.331Z,15.68
2017-10-03T10:36:01.559Z,15.67
2017-10-03T10:38:30.792Z,15.71
2017-10-03T10:41:00.160Z,15.67
2017-10-03T10:43:30.151Z,15.58
2017-10-03T10:45:59.390Z,15.62
2017-10-03T10:48:28.607Z,15.65
2017-10-03T10:50:57.804Z,15.74
2017-10-03T10:53:27.071Z,15.81
2017-10-03T10:55:57.039Z,16.00
2017-10-03T10:58:26.262Z,16.12
2017-10-03T11:00:55.496Z,16.28
2017-10-03T11:03:24.724Z,16.41
2017-10-03T11:05:53.935Z,16.38
2017-10-03T11:08:23.169Z,16.42
2017-10-03T11:10:53.191Z,16.38
2017-10-03T11:13:23.211Z,16.29
2017-10-03T11:15:53.219Z,16.19
2017-10-03T11:18:23.238Z,16.08
2017-10-03T11:20:53.239Z,16.04
2017-10-03T11:23:40.804Z,16.07
2017-10-03T11:26:10.044Z,15.89
2017-10-03T11:28:39.298Z,15.80
2017-10-03T11:31:08.814Z,15.77
2017-10-03T11:33:38.771Z,15.87
2017-10-03T11:36:08.006Z,15.94
2017-10-03T11:38:37.330Z,16.06
2017-10-03T11:41:06.559Z,16.04
2017-10-03T11:43:35.780Z,16.08
2017-10-03T11:46:05.765Z,16.15
2017-10-03T11:48:35.040Z,16.24
2017-10-03T11:51:04.249Z,16.31
2017-10-03T11:53:33.484Z,16.31
2017-10-03T11:56:02.703Z,16.30
2017-10-03T11:58:31.971Z,16.31
2017-10-03T12:01:01.168Z,16.37
2017-10-03T12:03:30.403Z,16.56
2017-10-03T12:05:59.627Z,16.72
2017-10-03T12:08:28.879Z,16.90
2017-10-03T12:10:58.862Z,16.93
2017-10-03T12:13:28.108Z,16.91
2017-10-03T12:15:58.086Z,16.99
2017-10-03T12:18:27.324Z,17.14
2017-10-03T12:20:57.326Z,17.27
2017-10-03T12:23:27.330Z,17.35
2017-10-03T12:25:56.823Z,17.30
2017-10-03T12:28:26.038Z,17.27
2017-10-03T12:30:56.143Z,17.17
2017-10-03T12:33:25.370Z,17.00
2017-10-03T12:35:55.369Z,16.89
2017-10-03T12:38:24.592Z,16.77
2017-10-03T12:40:53.820Z,16.69
2017-10-03T12:43:23.811Z,16.59
2017-10-03T12:45:53.046Z,16.46
2017-10-03T12:48:22.286Z,16.36
2017-10-03T12:50:52.267Z,16.38
2017-10-03T12:53:21.488Z,16.30
2017-10-03T12:55:51.465Z,16.27
2017-10-03T12:58:20.704Z,16.12
2017-10-03T13:00:50.720Z,16.02
2017-10-03T13:03:20.703Z,15.90
2017-10-03T13:05:49.955Z,15.87
2017-10-03T13:08:19.328Z,15.91
2017-10-03T13:10:48.591Z,15.88
2017-10-03T13:13:17.820Z,15.77
2017-10-03T13:15:47.039Z,15.64
2017-10-03T13:18:17.049Z,15.57
2017-10-03T13:20:47.031Z,15.53
2017-10-03T13:23:16.277Z,15.53
2017-10-03T13:25:46.580Z,15.57
2017-10-03T13:28:15.811Z,15.58
2017-10-03T13:30:45.030Z,15.55
2017-10-03T13:33:14.267Z,15.53
2017-10-03T13:35:44.491Z,15.57
2017-10-03T13:38:13.739Z,15.55
2017-10-03T13:40:43.019Z,15.51
2017-10-03T13:43:13.067Z,15.57
2017-10-03T13:45:42.344Z,15.59
2017-10-03T13:48:11.586Z,15.58
2017-10-03T13:50:40.826Z,15.67
2017-10-03T13:53:10.091Z,15.72
2017-10-03T13:55:39.367Z,15.80
2017-10-03T13:58:08.584Z,15.88
2017-10-03T14:00:37.875Z,15.94
2017-10-03T14:03:07.107Z,15.95
2017-10-03T14:05:36.330Z,16.02
2017-10-03T14:08:05.528Z,15.99
2017-10-03T14:10:34.782Z,16.04
2017-10-03T14:13:04.805Z,16.14
2017-10-03T14:15:34.060Z,16.21
2017-10-03T14:18:03.306Z,16.23
2017-10-03T14:20:33.292Z,16.25
2017-10-03T14:23:02.548Z,16.30
2017-10-03T14:25:31.924Z,16.33
2017-10-03T14:28:01.913Z,16.38
2017-10-03T14:30:31.150Z,16.37
2017-10-03T14:33:00.430Z,16.35
2017-10-03T14:35:30.453Z,16.36
2017-10-03T14:37:59.679Z,16.35
2017-10-03T14:40:28.944Z,16.31
2017-10-03T14:42:58.142Z,16.27
2017-10-03T14:45:27.418Z,16.26
2017-10-03T14:47:58.253Z,16.27
2017-10-03T14:50:27.476Z,16.28
2017-10-03T14:52:57.522Z,16.35
2017-10-03T14:55:26.750Z,16.34
2017-10-03T14:57:55.973Z,16.37
2017-10-03T15:00:25.233Z,16.47
2017-10-03T15:02:54.460Z,16.50
2017-10-03T15:05:23.696Z,16.53
2017-10-03T15:07:52.931Z,16.42
2017-10-03T15:10:22.127Z,16.43
2017-10-03T15:12:51.351Z,16.38
2017-10-03T15:15:20.579Z,16.34
2017-10-03T15:17:50.566Z,16.30
2017-10-03T15:20:19.820Z,16.31
2017-10-03T15:22:49.038Z,16.39
2017-10-03T15:25:18.273Z,16.44
2017-10-03T15:27:47.494Z,16.50
2017-10-03T15:30:16.720Z,16.59
2017-10-03T15:32:45.937Z,16.67
2017-10-03T15:35:15.147Z,16.70
2017-10-03T15:37:44.370Z,16.72
2017-10-03T15:40:14.357Z,16.76
2017-10-03T15:42:43.572Z,16.78
2017-10-03T15:45:12.808Z,16.81
2017-10-03T15:47:42.017Z,16.80
2017-10-03T15:50:11.285Z,16.80
2017-10-03T15:52:40.502Z,16.84
2017-10-03T15:55:09.771Z,16.83
2017-10-03T15:57:39.002Z,16.73
2017-10-03T16:00:08.229Z,16.54
2017-10-03T16:02:37.496Z,16.36
2017-10-03T16:05:06.705Z,16.23
2017-10-03T16:07:35.960Z,16.13
2017-10-03T16:10:05.413Z,16.06
2017-10-03T16:12:34.667Z,16.05
2017-10-03T16:15:03.898Z,16.05
2017-10-03T16:17:33.114Z,16.00
2017-10-03T16:20:02.329Z,15.95
2017-10-03T16:22:31.556Z,15.96
2017-10-03T16:25:01.550Z,16.00
2017-10-03T16:27:30.767Z,15.89
2017-10-03T16:30:00.024Z,15.79
2017-10-03T16:32:29.551Z,15.54
2017-10-03T16:34:59.277Z,15.41
2017-10-03T16:37:28.563Z,15.27
2017-10-03T16:39:57.923Z,15.19
2017-10-03T16:42:27.124Z,15.13
2017-10-03T16:44:56.422Z,15.07
2017-10-03T16:47:25.613Z,15.10
2017-10-03T16:49:54.863Z,15.05
2017-10-03T16:52:24.079Z,15.02
2017-10-03T16:54:53.294Z,15.00
2017-10-03T16:57:22.535Z,14.95
2017-10-03T16:59:51.752Z,14.94
2017-10-03T17:02:20.988Z,14.93
2017-10-03T17:04:50.243Z,14.89
2017-10-03T17:07:19.478Z,14.84
2017-10-03T17:09:48.707Z,14.79
2017-10-03T17:12:18.057Z,14.72
2017-10-03T17:14:48.037Z,14.63
2017-10-03T17:17:17.326Z,14.55
2017-10-03T17:19:46.543Z,14.52
2017-10-03T17:22:15.762Z,14.52
2017-10-03T17:24:44.996Z,14.43
2017-10-03T17:27:14.251Z,14.38
2017-10-03T17:29:43.488Z,14.37
2017-10-03T17:32:12.776Z,14.38
2017-10-03T17:34:41.994Z,14.38
2017-10-03T17:37:11.236Z,14.32
2017-10-03T17:39:40.452Z,14.34
2017-10-03T17:42:10.501Z,14.33
2017-10-03T17:44:39.730Z,14.33
2017-10-03T17:47:08.947Z,14.29
2017-10-03T17:49:38.192Z,14.25
2017-10-03T17:52:07.416Z,14.20
2017-10-03T17:54:36.669Z,14.17
2017-10-03T17:57:06.655Z,14.12
2017-10-03T17:59:35.879Z,14.06
2017-10-03T18:02:05.853Z,14.00
2017-10-03T18:04:35.166Z,13.96
2017-10-03T18:07:04.362Z,13.90
2017-10-03T18:09:33.594Z,13.85
2017-10-03T18:12:03.603Z,13.80
2017-10-03T18:14:33.630Z,13.79
2017-10-03T18:17:03.620Z,13.80
2017-10-03T18:19:32.944Z,13.82
2017-10-03T18:22:02.187Z,13.77
2017-10-03T18:24:32.287Z,13.67
2017-10-03T18:27:01.523Z,13.67
2017-10-03T18:29:30.748Z,13.69
2017-10-03T18:32:00.014Z,13.71
2017-10-03T18:34:29.238Z,13.70
2017-10-03T18:36:59.262Z,13.71
2017-10-03T18:39:28.664Z,13.75
2017-10-03T18:41:57.986Z,13.77
2017-10-03T18:44:27.222Z,13.78
2017-10-03T18:46:56.527Z,13.69
2017-10-03T18:49:25.767Z,13.71
2017-10-03T18:51:55.794Z,13.66
2017-10-03T18:54:25.150Z,13.61
2017-10-03T18:56:55.196Z,13.53
2017-10-03T18:59:25.215Z,13.48
2017-10-03T19:01:55.216Z,13.43
2017-10-03T19:04:24.555Z,13.44
2017-10-03T19:06:53.764Z,13.40
2017-10-03T19:09:23.015Z,13.35
2017-10-03T19:11:53.032Z,13.30
2017-10-03T19:14:23.051Z,13.27
2017-10-03T19:16:53.051Z,13.24
2017-10-03T19:19:22.252Z,13.18
2017-10-03T19:21:52.294Z,13.18
2017-10-03T19:24:22.393Z,13.20
2017-10-03T19:26:51.860Z,13.17
2017-10-03T19:29:21.128Z,13.16
2017-10-03T19:31:50.409Z,13.09
2017-10-03T19:34:19.660Z,13.16
2017-10-03T19:36:48.928Z,13.18
2017-10-03T19:39:18.261Z,13.17
2017-10-03T19:41:47.491Z,13.13
2017-10-03T19:44:17.495Z,13.09
2017-10-03T19:46:46.761Z,13.04
2017-10-03T19:49:16.014Z,13.02
2017-10-03T19:51:45.204Z,13.02
2017-10-03T19:54:14.431Z,13.07
2017-10-03T19:56:43.677Z,13.06
2017-10-03T19:59:12.920Z,13.08
2017-10-03T20:01:42.157Z,13.06
2017-10-03T20:04:12.194Z,13.10
2017-10-03T20:06:41.420Z,13.09
2017-10-03T20:09:11.447Z,13.11
2017-10-03T20:11:40.686Z,13.07
2017-10-03T20:14:10.211Z,13.10
2017-10-03T20:16:40.203Z,13.08
2017-10-03T20:19:09.463Z,13.04
2017-10-03T20:21:38.787Z,12.97
2017-10-03T20:24:08.037Z,13.00
2017-10-03T20:26:38.201Z,12.99
2017-10-03T20:29:07.383Z,13.00
2017-10-03T20:31:36.588Z,12.98
2017-10-03T20:34:05.840Z,13.01
2017-10-03T20:36:35.079Z,13.01
2017-10-03T20:39:04.460Z,13.02
2017-10-03T20:41:34.485Z,12.94
2017-10-03T20:44:03.743Z,12.92
2017-10-03T20:46:34.460Z,12.95
2017-10-03T20:49:03.796Z,12.99
2017-10-03T20:51:33.817Z,13.02
2017-10-03T20:54:04.001Z,13.08
2017-10-03T20:56:33.227Z,13.05
2017-10-03T20:59:03.290Z,13.04
2017-10-03T21:01:32.516Z,13.09
2017-10-03T21:04:01.724Z,13.12
2017-10-03T21:06:30.948Z,13.13
2017-10-03T21:09:00.964Z,13.13
2017-10-03T21:11:30.964Z,13.11
2017-10-03T21:14:00.183Z,13.12
2017-10-03T21:16:29.449Z,13.11
2017-10-03T21:18:58.712Z,13.08
2017-10-03T21:21:27.928Z,13.00
2017-10-03T21:23:57.134Z,12.96
2017-10-03T21:26:26.411Z,12.97
2017-10-03T21:28:55.681Z,12.95
2017-10-03T21:31:25.711Z,12.91
2017-10-03T21:33:55.690Z,12.89
2017-10-03T21:36:24.907Z,12.88
2017-10-03T21:38:54.151Z,12.91
2017-10-03T21:41:24.152Z,12.89
2017-10-03T21:43:53.471Z,12.92
2017-10-03T21:46:22.675Z,12.94
2017-10-03T21:48:51.979Z,12.95
2017-10-03T21:51:21.187Z,13.01
2017-10-03T21:53:50.450Z,12.99
2017-10-03T21:56:19.680Z,13.02
2017-10-03T21:58:48.911Z,13.03
2017-10-03T22:01:18.895Z,13.04
2017-10-03T22:03:48.187Z,13.00
2017-10-03T22:06:17.493Z,12.95
2017-10-03T22:08:46.693Z,13.03
2017-10-03T22:11:16.129Z,13.07
2017-10-03T22:13:45.346Z,13.04
2017-10-03T22:16:14.590Z,13.11
2017-10-03T22:18:43.800Z,13.14
2017-10-03T22:21:13.793Z,13.16
2017-10-03T22:23:43.227Z,13.17
2017-10-03T22:26:13.202Z,13.15
2017-10-03T22:41:49.223Z,13.26
2017-10-03T22:44:18.434Z,13.26
2017-10-03T22:46:47.672Z,13.24
2017-10-03T22:49:17.659Z,13.28
2017-10-03T22:51:52.236Z,13.29
2017-10-03T22:54:21.459Z,13.24
2017-10-03T22:56:50.678Z,13.25
2017-10-03T22:59:19.899Z,13.20
2017-10-03T23:01:49.904Z,13.24
2017-10-03T23:04:19.177Z,13.25
2017-10-03T23:06:48.399Z,13.21
2017-10-03T23:09:17.626Z,13.21
2017-10-03T23:11:47.646Z,13.27
2017-10-03T23:14:17.619Z,13.26
2017-10-03T23:16:46.820Z,13.28
2017-10-03T23:19:16.027Z,13.28
2017-10-03T23:21:45.276Z,13.30
2017-10-03T23:24:14.487Z,13.25
2017-10-03T23:26:43.712Z,13.24
2017-10-03T23:29:12.915Z,13.24
2017-10-03T23:31:42.127Z,13.23
2017-10-03T23:34:12.132Z,13.23
2017-10-03T23:36:41.363Z,13.20
2017-10-03T23:39:11.393Z,13.26
2017-10-03T23:41:40.626Z,13.25
2017-10-03T23:44:09.821Z,13.23
2017-10-03T23:46:39.019Z,13.22
2017-10-03T23:49:08.229Z,13.16
2017-10-03T23:51:37.440Z,13.15
2017-10-03T23:54:06.675Z,13.11
2017-10-03T23:56:35.981Z,13.07
2017-10-03T23:59:05.185Z,13.08
